createdAt,value
2023-01-02T00:00:45.125Z,101017.19
2023-01-02T00:03:17.141Z,101013.56
2023-01-02T00:05:48.773Z,100996.25
2023-01-02T00:08:20.499Z,100994.53
2023-01-02T00:10:53.124Z,100992.69
2023-01-02T00:13:25.276Z,100996.41
2023-01-02T00:15:56.913Z,100992.91
2023-01-02T00:18:28.838Z,100978.16
2023-01-02T00:21:00.361Z,100980.91
2023-01-02T00:23:32.692Z,100982.75
2023-01-02T00:26:04.241Z,100988.31
2023-01-02T00:28:36.063Z,100981.50
2023-01-02T00:31:07.719Z,100982.09
2023-01-02T00:33:39.770Z,100998.56
2023-01-02T00:36:11.351Z,100978.16
2023-01-02T00:38:43.244Z,100981.84
2023-01-02T00:41:14.774Z,100974.66
2023-01-02T00:43:46.757Z,100960.47
2023-01-02T00:46:18.920Z,100953.50
2023-01-02T00:48:51.078Z,100946.53
2023-01-02T00:51:22.651Z,100940.72
2023-01-02T00:53:54.591Z,100950.59
2023-01-02T00:56:26.109Z,100951.63
2023-01-02T00:58:58.108Z,100959.88
2023-01-02T01:01:29.763Z,100962.69
2023-01-02T01:04:01.810Z,100964.31
2023-01-02T01:06:33.362Z,100958.97
2023-01-02T01:09:05.174Z,100960.84
2023-01-02T01:11:36.705Z,100960.47
2023-01-02T01:14:08.534Z,100964.63
2023-01-02T01:16:40.249Z,100956.63
2023-01-02T01:19:11.876Z,100948.59
2023-01-02T01:21:43.382Z,100941.84
2023-01-02T01:24:15.252Z,100940.81
2023-01-02T01:26:46.793Z,100930.94
2023-01-02T01:29:18.779Z,100929.66
2023-01-02T01:31:50.445Z,100932.56
2023-01-02T01:34:22.324Z,100921.88
2023-01-02T01:36:53.843Z,100925.59
2023-01-02T01:39:25.816Z,100918.97
2023-01-02T01:41:57.337Z,100921.06
2023-01-02T01:44:29.181Z,100923.97
2023-01-02T01:47:00.746Z,100925.59
2023-01-02T01:49:32.741Z,100914.91
2023-01-02T01:52:04.293Z,100909.56
2023-01-02T01:54:36.374Z,100900.50
2023-01-02T01:57:07.906Z,100892.03
2023-01-02T01:59:39.763Z,100883.56
2023-01-02T02:02:11.450Z,100889.72
2023-01-02T02:04:43.623Z,100885.19
2023-01-02T02:07:15.189Z,100884.72
2023-01-02T02:09:47.104Z,100883.69
2023-01-02T02:12:22.921Z,100876.84
2023-01-02T02:14:57.911Z,100858.75
2023-01-02T02:17:29.545Z,100870.63
2023-01-02T02:20:01.401Z,100863.19
2023-01-02T02:22:32.955Z,100864.72
2023-01-02T02:25:04.869Z,100845.19
2023-01-02T02:27:36.406Z,100837.06
2023-01-02T02:30:08.365Z,100839.03
2023-01-02T02:32:39.960Z,100828.13
2023-01-02T02:35:11.886Z,100824.03
2023-01-02T02:37:43.463Z,100835.66
2023-01-02T02:40:15.350Z,100827.41
2023-01-02T02:42:46.884Z,100821.03
2023-01-02T02:45:18.780Z,100822.31
2023-01-02T02:47:50.310Z,100828.47
2023-01-02T02:50:22.212Z,100830.56
2023-01-02T02:52:53.745Z,100818.34
2023-01-02T02:55:25.663Z,100811.28
2023-01-02T02:57:57.257Z,100813.34
2023-01-02T03:00:29.148Z,100815.09
2023-01-02T03:03:00.891Z,100805.13
2023-01-02T03:05:32.938Z,100810.81
2023-01-02T03:08:04.487Z,100808.38
2023-01-02T03:10:36.447Z,100812.31
2023-01-02T03:13:08.018Z,100801.19
2023-01-02T03:15:39.889Z,100799.53
2023-01-02T03:18:11.447Z,100800.78
2023-01-02T03:20:43.318Z,100797.31
2023-01-02T03:23:14.855Z,100794.88
2023-01-02T03:25:46.651Z,100802.31
2023-01-02T03:28:18.221Z,100795.25
2023-01-02T03:30:50.179Z,100793.38
2023-01-02T03:33:21.787Z,100793.16
2023-01-02T03:35:53.643Z,100791.88
2023-01-02T03:38:25.173Z,100783.50
2023-01-02T03:40:57.125Z,100787.56
2023-01-02T03:43:29.450Z,100789.44
2023-01-02T03:46:01.351Z,100783.63
2023-01-02T03:48:33.477Z,100786.06
2023-01-02T03:51:05.010Z,100793.50
2023-01-02T03:53:36.955Z,100792.00
2023-01-02T03:56:08.508Z,100787.69
2023-01-02T03:58:40.374Z,100785.94
2023-01-02T04:01:12.036Z,100779.31
2023-01-02T04:03:44.000Z,100774.78
2023-01-02T04:06:15.535Z,100775.13
2023-01-02T04:08:47.492Z,100766.50
2023-01-02T04:11:19.049Z,100768.00
2023-01-02T04:13:50.831Z,100769.63
2023-01-02T04:16:22.389Z,100774.88
2023-01-02T04:18:54.248Z,100771.75
2023-01-02T04:21:25.761Z,100772.56
2023-01-02T04:23:57.719Z,100768.59
2023-01-02T04:26:29.247Z,100769.75
2023-01-02T04:29:01.216Z,100769.53
2023-01-02T04:31:32.773Z,100769.88
2023-01-02T04:34:04.778Z,100764.16
2023-01-02T04:36:36.355Z,100758.00
2023-01-02T04:39:08.243Z,100754.38
2023-01-02T04:41:39.814Z,100754.75
2023-01-02T04:44:11.852Z,100757.44
2023-01-02T04:46:43.500Z,100756.72
2023-01-02T04:49:15.387Z,100759.88
2023-01-02T04:51:46.900Z,100764.50
2023-01-02T04:54:18.443Z,100759.41
2023-01-02T04:56:50.261Z,100754.28
2023-01-02T04:59:21.768Z,100753.00
2023-01-02T05:01:53.997Z,100759.63
2023-01-02T05:04:25.637Z,100751.38
2023-01-02T05:06:57.467Z,100755.91
2023-01-02T05:09:28.990Z,100755.91
2023-01-02T05:12:00.945Z,100751.59
2023-01-02T05:14:32.454Z,100752.19
2023-01-02T05:17:04.351Z,100759.97
2023-01-02T05:19:35.852Z,100762.06
2023-01-02T05:22:26.504Z,100756.94
2023-01-02T05:24:58.016Z,100763.69
2023-01-02T05:27:29.776Z,100758.81
2023-01-02T05:30:01.295Z,100749.25
2023-01-02T05:32:33.177Z,100751.13
2023-01-02T05:35:04.746Z,100763.22
2023-01-02T05:37:36.616Z,100749.50
2023-01-02T05:40:08.163Z,100744.97
2023-01-02T05:42:40.104Z,100751.13
2023-01-02T05:45:11.621Z,100743.34
2023-01-02T05:47:43.436Z,100747.63
2023-01-02T05:50:14.940Z,100747.41
2023-01-02T05:52:46.796Z,100749.50
2023-01-02T05:55:18.329Z,100743.09
2023-01-02T05:57:50.355Z,100739.50
2023-01-02T06:00:21.873Z,100743.56
2023-01-02T06:02:53.744Z,100736.34
2023-01-02T06:05:25.290Z,100740.19
2023-01-02T06:07:57.164Z,100740.66
2023-01-02T06:10:28.685Z,100735.31
2023-01-02T06:13:00.758Z,100742.75
2023-01-02T06:15:32.291Z,100737.50
2023-01-02T06:18:04.118Z,100744.72
2023-01-02T06:20:35.639Z,100745.19
2023-01-02T06:23:07.518Z,100743.81
2023-01-02T06:25:39.019Z,100743.09
2023-01-02T06:28:10.985Z,100751.13
2023-01-02T06:30:42.524Z,100747.63
2023-01-02T06:33:14.421Z,100748.09
2023-01-02T06:35:45.945Z,100747.88
2023-01-02T06:38:17.778Z,100747.63
2023-01-02T06:40:49.291Z,100751.69
2023-01-02T06:43:21.130Z,100753.00
2023-01-02T06:45:52.785Z,100754.72
2023-01-02T06:48:24.692Z,100757.41
2023-01-02T06:50:56.291Z,100752.03
2023-01-02T06:53:28.224Z,100756.91
2023-01-02T06:55:59.754Z,100746.22
2023-01-02T06:58:31.781Z,100758.06
2023-01-02T07:01:03.828Z,100750.66
2023-01-02T07:03:35.721Z,100753.91
2023-01-02T07:06:07.239Z,100759.25
2023-01-02T07:08:39.173Z,100758.31
2023-01-02T07:11:10.762Z,100760.41
2023-01-02T07:13:42.754Z,100769.00
2023-01-02T07:16:14.364Z,100779.72
2023-01-02T07:18:46.263Z,100770.06
2023-01-02T07:21:20.550Z,100782.16
2023-01-02T07:23:52.431Z,100780.31
2023-01-02T07:26:23.942Z,100778.34
2023-01-02T07:28:55.810Z,100778.34
2023-01-02T07:31:29.195Z,100787.75
2023-01-02T07:34:01.132Z,100771.13
2023-01-02T07:36:32.681Z,100776.81
2023-01-02T07:39:04.533Z,100776.81
2023-01-02T07:41:36.201Z,100773.66
2023-01-02T07:44:08.088Z,100782.50
2023-01-02T07:46:39.663Z,100784.69
2023-01-02T07:49:11.615Z,100794.38
2023-01-02T07:51:43.139Z,100790.97
2023-01-02T07:54:15.007Z,100791.88
2023-01-02T07:56:46.533Z,100793.59
2023-01-02T07:59:18.559Z,100794.06
2023-01-02T08:01:50.117Z,100792.03
2023-01-02T08:04:22.124Z,100797.00
2023-01-02T08:06:53.657Z,100791.34
2023-01-02T08:09:25.607Z,100795.03
2023-01-02T08:11:57.127Z,100794.72
2023-01-02T08:14:28.995Z,100809.84
2023-01-02T08:17:00.594Z,100728.22
2023-01-02T08:19:32.487Z,100799.84
2023-01-02T08:22:04.094Z,100794.47
2023-01-02T08:24:35.905Z,100797.50
2023-01-02T08:27:07.436Z,100794.00
2023-01-02T08:29:39.766Z,100795.16
2023-01-02T08:32:11.290Z,100807.13
2023-01-02T08:34:43.151Z,100800.97
2023-01-02T08:37:14.653Z,100801.28
2023-01-02T08:39:46.517Z,100804.53
2023-01-02T08:42:18.032Z,100804.38
2023-01-02T08:44:50.008Z,100796.06
2023-01-02T08:47:21.536Z,100805.50
2023-01-02T08:49:53.429Z,100806.25
2023-01-02T08:52:24.979Z,100802.75
2023-01-02T08:54:56.993Z,100807.53
2023-01-02T08:57:28.502Z,100809.75
2023-01-02T09:00:00.465Z,100806.97
2023-01-02T09:02:32.295Z,100813.88
2023-01-02T09:05:04.244Z,100814.47
2023-01-02T09:07:35.754Z,100810.06
2023-01-02T09:10:07.609Z,100818.53
2023-01-02T09:12:39.132Z,100825.84
2023-01-02T09:15:11.031Z,100823.31
2023-01-02T09:17:42.563Z,100825.56
2023-01-02T09:20:14.442Z,100815.91
2023-01-02T09:22:45.978Z,100823.13
2023-01-02T09:25:23.848Z,100820.31
2023-01-02T09:27:55.972Z,100822.50
2023-01-02T09:30:27.856Z,100827.22
2023-01-02T09:32:59.370Z,100830.22
2023-01-02T09:35:31.210Z,100823.84
2023-01-02T09:38:03.017Z,100824.09
2023-01-02T09:40:34.513Z,100826.34
2023-01-02T09:43:06.306Z,100821.28
2023-01-02T09:45:37.832Z,100822.16
2023-01-02T09:48:09.577Z,100815.47
2023-01-02T09:50:41.099Z,100821.16
2023-01-02T09:53:12.973Z,100816.16
2023-01-02T09:55:45.120Z,100799.22
2023-01-02T09:58:16.973Z,100802.69
2023-01-02T10:00:48.502Z,100791.31
2023-01-02T10:03:20.451Z,100785.13
2023-01-02T10:05:52.073Z,100791.72
2023-01-02T10:08:31.181Z,100772.06
2023-01-02T10:11:03.658Z,100783.41
2023-01-02T10:14:08.904Z,100778.59
2023-01-02T10:16:27.176Z,100783.78
2023-01-02T10:18:59.179Z,100780.41
2023-01-02T10:21:30.710Z,100763.13
2023-01-02T10:24:02.625Z,100778.34
2023-01-02T10:26:34.150Z,100769.00
2023-01-02T10:29:06.130Z,100755.06
2023-01-02T10:31:38.728Z,100759.06
2023-01-02T10:34:15.291Z,100752.56
2023-01-02T10:36:46.828Z,100747.97
2023-01-02T10:39:18.635Z,100742.34
2023-01-02T10:41:50.236Z,100753.44
2023-01-02T10:44:22.342Z,100766.72
2023-01-02T10:46:53.872Z,100746.00
2023-01-02T10:49:25.764Z,100756.44
2023-01-02T10:51:57.323Z,100768.00
2023-01-02T10:54:29.098Z,100763.94
2023-01-02T10:57:00.627Z,100760.75
2023-01-02T10:59:32.754Z,100755.38
2023-01-02T11:02:04.390Z,100754.06
2023-01-02T11:04:36.283Z,100741.97
2023-01-02T11:07:07.834Z,100761.09
2023-01-02T11:09:40.615Z,100745.47
2023-01-02T11:12:12.186Z,100758.09
2023-01-02T11:14:44.055Z,100746.28
2023-01-02T11:17:15.693Z,100752.06
2023-01-02T11:19:47.615Z,100749.38
2023-01-02T11:22:19.169Z,100748.16
2023-01-02T11:24:54.480Z,100747.09
2023-01-02T11:27:31.372Z,100744.03
2023-01-02T11:30:03.400Z,100735.69
2023-01-02T11:32:35.069Z,100727.06
2023-01-02T11:35:07.208Z,100734.31
2023-01-02T11:37:38.791Z,100745.31
2023-01-02T11:40:10.671Z,100750.13
2023-01-02T11:43:00.974Z,100747.53
2023-01-02T11:45:32.892Z,100750.69
2023-01-02T11:48:04.456Z,100752.34
2023-01-02T11:50:36.489Z,100745.41
2023-01-02T11:53:08.013Z,100748.66
2023-01-02T11:55:39.791Z,100756.34
2023-01-02T11:58:11.328Z,100762.59
2023-01-02T12:00:43.254Z,100753.13
2023-01-02T12:03:18.390Z,100757.06
2023-01-02T12:05:50.725Z,100761.50
2023-01-02T12:08:22.235Z,100751.94
2023-01-02T12:10:54.110Z,100757.81
2023-01-02T12:13:25.618Z,100753.88
2023-01-02T12:15:57.351Z,100754.47
2023-01-02T12:18:28.861Z,100749.38
2023-01-02T12:21:00.739Z,100759.69
2023-01-02T12:23:32.349Z,100750.28
2023-01-02T12:26:08.897Z,100757.22
2023-01-02T12:28:41.093Z,100755.09
2023-01-02T12:31:13.065Z,100756.16
2023-01-02T12:33:44.633Z,100765.38
2023-01-02T12:36:16.571Z,100758.78
2023-01-02T12:38:48.091Z,100765.22
2023-01-02T12:41:19.978Z,100750.97
2023-01-02T12:43:51.541Z,100757.41
2023-01-02T12:46:23.396Z,100756.41
2023-01-02T12:48:54.974Z,100768.53
2023-01-02T12:51:26.835Z,100770.47
2023-01-02T12:54:20.578Z,100770.97
2023-01-02T12:56:51.229Z,100778.06
2023-01-02T12:59:23.576Z,100777.50
2023-01-02T13:01:55.247Z,100764.66
2023-01-02T13:04:27.155Z,100765.94
2023-01-02T13:06:58.712Z,100771.19
2023-01-02T13:09:30.703Z,100757.28
2023-01-02T13:12:02.352Z,100759.31
2023-01-02T13:14:34.267Z,100751.63
2023-01-02T13:17:05.887Z,100758.03
2023-01-02T13:19:37.729Z,100766.16
2023-01-02T13:22:09.287Z,100765.03
2023-01-02T13:24:41.096Z,100763.97
2023-01-02T13:27:12.635Z,100762.44
2023-01-02T13:29:44.448Z,100769.16
2023-01-02T13:32:15.997Z,100765.25
2023-01-02T13:34:48.292Z,100775.09
2023-01-02T13:37:19.845Z,100776.47
2023-01-02T13:39:51.746Z,100775.66
2023-01-02T13:42:42.147Z,100791.44
2023-01-02T13:45:14.031Z,100783.41
2023-01-02T13:47:48.363Z,100789.09
2023-01-02T13:50:20.286Z,100790.78
2023-01-02T13:52:51.809Z,100779.47
2023-01-02T13:55:28.820Z,100793.72
2023-01-02T13:58:00.369Z,100793.47
2023-01-02T14:00:32.277Z,100791.84
2023-01-02T14:03:03.930Z,100798.59
2023-01-02T14:05:35.887Z,100795.91
2023-01-02T14:08:07.416Z,100783.78
2023-01-02T14:10:39.505Z,100790.03
2023-01-02T14:13:11.085Z,100793.78
2023-01-02T14:15:43.124Z,100796.41
2023-01-02T14:18:14.661Z,100802.56
2023-01-02T14:20:46.485Z,100796.72
2023-01-02T14:23:18.033Z,100805.00
2023-01-02T14:25:49.936Z,100808.50
2023-01-02T14:28:21.468Z,100809.06
2023-01-02T14:30:53.454Z,100810.94
2023-01-02T14:33:25.028Z,100817.38
2023-01-02T14:35:59.938Z,100824.94
2023-01-02T14:38:31.532Z,100829.97
2023-01-02T14:41:22.181Z,100839.34
2023-01-02T14:43:53.791Z,100835.28
2023-01-02T14:46:25.614Z,100830.22
2023-01-02T14:48:58.364Z,100832.66
2023-01-02T14:51:30.288Z,100838.84
2023-01-02T14:54:01.859Z,100838.84
2023-01-02T14:56:33.679Z,100821.94
2023-01-02T14:59:05.199Z,100823.22
2023-01-02T15:01:43.474Z,100829.09
2023-01-02T15:04:15.831Z,100840.16
2023-01-02T15:06:47.836Z,100830.38
2023-01-02T15:09:19.473Z,100837.88
2023-01-02T15:12:09.790Z,100844.28
2023-01-02T15:14:41.373Z,100856.34
2023-01-02T15:17:13.172Z,100857.38
2023-01-02T15:19:44.748Z,100864.38
2023-01-02T15:22:17.449Z,100873.00
2023-01-02T15:24:49.012Z,100885.84
2023-01-02T15:27:20.865Z,100890.41
2023-01-02T15:29:53.753Z,100899.97
2023-01-02T15:32:25.581Z,100907.53
2023-01-02T15:34:57.136Z,100913.47
2023-01-02T15:37:28.971Z,100921.44
2023-01-02T15:40:00.532Z,100926.47
2023-01-02T15:42:51.182Z,100927.06
2023-01-02T15:45:22.721Z,100932.31
2023-01-02T15:47:54.741Z,100942.56
2023-01-02T15:50:26.256Z,100962.97
2023-01-02T15:52:58.098Z,100951.81
2023-01-02T15:55:29.592Z,100953.50
2023-01-02T15:58:01.416Z,100962.13
2023-01-02T16:00:33.004Z,100953.75
2023-01-02T16:03:05.200Z,100959.22
2023-01-02T16:05:36.825Z,100961.34
2023-01-02T16:08:08.702Z,100969.75
2023-01-02T16:10:40.206Z,100977.91
2023-01-02T16:13:30.846Z,100980.47
2023-01-02T16:16:15.853Z,100981.53
2023-01-02T16:18:49.000Z,100984.47
2023-01-02T16:21:20.528Z,101003.06
2023-01-02T16:23:52.451Z,101001.19
2023-01-02T16:26:24.364Z,101005.28
2023-01-02T16:28:56.201Z,101007.63
2023-01-02T16:31:28.941Z,101004.00
2023-01-02T16:34:00.857Z,101014.94
2023-01-02T16:36:32.401Z,101022.59
2023-01-02T16:39:04.345Z,101031.56
2023-01-02T16:41:41.050Z,101029.94
2023-01-02T16:44:13.287Z,101027.59
2023-01-02T16:46:44.797Z,101038.88
2023-01-02T16:49:16.768Z,101038.38
2023-01-02T16:51:48.298Z,101043.94
2023-01-02T16:54:20.188Z,101049.88
2023-01-02T16:56:51.846Z,101052.16
2023-01-02T16:59:23.665Z,101057.91
2023-01-02T17:01:55.289Z,101071.38
2023-01-02T17:04:27.161Z,101065.19
2023-01-02T17:06:58.674Z,101057.16
2023-01-02T17:09:30.681Z,101076.16
2023-01-02T17:12:02.241Z,101076.91
2023-01-02T17:14:34.378Z,101077.25
2023-01-02T17:17:05.892Z,101088.91
2023-01-02T17:19:37.900Z,101090.59
2023-01-02T17:22:09.432Z,101088.66
2023-01-02T17:24:41.432Z,101089.75
2023-01-02T17:27:12.950Z,101086.53
2023-01-02T17:29:44.841Z,101088.59
2023-01-02T17:32:20.411Z,101088.84
2023-01-02T17:34:53.332Z,101099.50
2023-01-02T17:37:25.010Z,101104.63
2023-01-02T17:39:57.886Z,101097.28
2023-01-02T17:42:29.456Z,101104.25
2023-01-02T17:45:01.403Z,101108.19
2023-01-02T17:48:00.706Z,101091.53
2023-01-02T17:50:24.789Z,101107.97
2023-01-02T17:52:56.307Z,101109.59
2023-01-02T17:55:28.110Z,101109.19
2023-01-02T17:58:00.928Z,101125.19
2023-01-02T18:00:32.942Z,101126.66
2023-01-02T18:03:04.490Z,101143.28
2023-01-02T18:05:36.520Z,101138.97
2023-01-02T18:08:08.033Z,101143.72
2023-01-02T18:10:39.944Z,101139.41
2023-01-02T18:13:11.531Z,101142.09
2023-01-02T18:15:43.319Z,101137.34
2023-01-02T18:18:15.823Z,101146.16
2023-01-02T18:20:47.724Z,101150.47
2023-01-02T18:23:19.245Z,101151.28
2023-01-02T18:25:51.160Z,101147.19
2023-01-02T18:28:23.121Z,101145.34
2023-01-02T18:30:54.715Z,101146.81
2023-01-02T18:33:27.110Z,101146.88
2023-01-02T18:35:59.369Z,101151.81
2023-01-02T18:38:31.550Z,101162.44
2023-01-02T18:41:03.475Z,101166.13
2023-01-02T18:43:38.380Z,101180.94
2023-01-02T18:46:09.956Z,101185.66
2023-01-02T18:48:41.864Z,101183.44
2023-01-02T18:51:13.360Z,101184.25
2023-01-02T18:53:44.986Z,101187.13
2023-01-02T18:56:16.502Z,101183.22
2023-01-02T18:58:51.501Z,101185.06
2023-01-02T19:01:23.814Z,101179.28
2023-01-02T19:03:58.425Z,101187.50
2023-01-02T19:06:29.962Z,101194.53
2023-01-02T19:09:01.878Z,101192.53
2023-01-02T19:11:51.998Z,101200.50
2023-01-02T19:14:23.885Z,101207.69
2023-01-02T19:16:55.407Z,101205.28
2023-01-02T19:19:27.317Z,101205.88
2023-01-02T19:21:59.883Z,101215.34
2023-01-02T19:24:31.442Z,101217.63
2023-01-02T19:27:02.967Z,101075.28
2023-01-02T19:29:34.583Z,101225.22
2023-01-02T19:32:06.115Z,101226.03
2023-01-02T19:34:38.029Z,101225.09
2023-01-02T19:37:09.584Z,101233.09
2023-01-02T19:39:42.701Z,101244.78
2023-01-02T19:42:20.206Z,101249.72
2023-01-02T19:44:52.113Z,101248.50
2023-01-02T19:47:23.671Z,101263.47
2023-01-02T19:49:55.608Z,101261.22
2023-01-02T19:52:27.211Z,101263.06
2023-01-02T19:54:59.026Z,101268.38
2023-01-02T19:57:30.659Z,101266.78
2023-01-02T20:00:02.207Z,101272.31
2023-01-02T20:02:33.849Z,101272.91
2023-01-02T20:05:05.678Z,101268.59
2023-01-02T20:07:37.181Z,101264.31
2023-01-02T20:10:08.787Z,101268.22
2023-01-02T20:12:41.359Z,101277.00
2023-01-02T20:15:13.092Z,101259.19
2023-01-02T20:17:44.617Z,101261.03
2023-01-02T20:20:16.380Z,101259.19
2023-01-02T20:22:49.272Z,101250.59
2023-01-02T20:25:24.333Z,101261.63
2023-01-02T20:27:56.265Z,101265.56
2023-01-02T20:30:28.307Z,101268.19
2023-01-02T20:32:59.899Z,101278.03
2023-01-02T20:35:31.821Z,101271.88
2023-01-02T20:38:03.325Z,101285.00
2023-01-02T20:40:34.854Z,101293.41
2023-01-02T20:43:06.421Z,101301.97
2023-01-02T20:45:37.969Z,101308.75
2023-01-02T20:48:09.528Z,101321.84
2023-01-02T20:50:41.103Z,101321.84
2023-01-02T20:53:12.691Z,101325.53
2023-01-02T20:55:44.871Z,101335.59
2023-01-02T20:58:16.443Z,101337.41
2023-01-02T21:00:48.435Z,101343.16
2023-01-02T21:03:20.138Z,101348.66
2023-01-02T21:05:53.635Z,101362.59
2023-01-02T21:08:25.582Z,101359.56
2023-01-02T21:10:57.151Z,101373.66
2023-01-02T21:13:28.694Z,101383.25
2023-01-02T21:16:00.291Z,101380.59
2023-01-02T21:18:32.204Z,101386.94
2023-01-02T21:21:05.383Z,101390.03
2023-01-02T21:23:37.286Z,101385.28
2023-01-02T21:26:08.953Z,101398.78
2023-01-02T21:28:40.494Z,101397.56
2023-01-02T21:31:12.049Z,101409.03
2023-01-02T21:33:43.970Z,101405.34
2023-01-02T21:36:15.864Z,101413.53
2023-01-02T21:38:47.863Z,101408.00
2023-01-02T21:41:38.441Z,101418.03
2023-01-02T21:44:09.974Z,101427.88
2023-01-02T21:46:41.911Z,101427.88
2023-01-02T21:49:13.485Z,101427.22
2023-01-02T21:51:45.072Z,101425.69
2023-01-02T21:54:16.569Z,101436.75
2023-01-02T21:56:48.501Z,101439.59
2023-01-02T21:59:21.122Z,101439.22
2023-01-02T22:01:52.873Z,101448.22
2023-01-02T22:04:24.540Z,101448.00
2023-01-02T22:09:48.032Z,101452.47
2023-01-02T22:12:20.002Z,101461.44
2023-01-02T22:14:51.571Z,101457.19
2023-01-02T22:17:23.539Z,101468.84
2023-01-02T22:19:55.130Z,101467.59
2023-01-02T22:22:27.115Z,101477.84
2023-01-02T22:24:58.618Z,101488.72
2023-01-02T22:27:30.150Z,101480.31
2023-01-02T22:32:53.616Z,101485.97
2023-01-02T22:35:26.605Z,101494.34
2023-01-02T22:37:59.845Z,101495.41
2023-01-02T22:40:31.350Z,101491.94
2023-01-02T22:43:05.356Z,101494.31
2023-01-02T22:45:37.585Z,101499.78
2023-01-02T22:48:09.432Z,101503.94
2023-01-02T22:50:41.061Z,101507.41
2023-01-02T22:53:12.857Z,101507.41
2023-01-02T22:55:44.384Z,101511.72
2023-01-02T22:58:16.314Z,101515.13
2023-01-02T23:00:47.869Z,101512.66
2023-01-02T23:03:19.667Z,101510.31
2023-01-02T23:05:51.225Z,101516.78
2023-01-02T23:08:23.134Z,101520.84
2023-01-02T23:10:54.721Z,101524.16
2023-01-02T23:13:26.668Z,101515.53
2023-01-02T23:16:16.735Z,101522.31
2023-01-02T23:19:07.128Z,101517.38
2023-01-02T23:21:38.760Z,101526.09
2023-01-02T23:24:10.728Z,101527.13
2023-01-02T23:26:42.214Z,101531.97
2023-01-02T23:29:14.160Z,101527.22
2023-01-02T23:31:45.689Z,101531.06
2023-01-02T23:34:17.548Z,101536.00
2023-01-02T23:36:49.063Z,101539.59
2023-01-02T23:39:20.607Z,101545.75
2023-01-02T23:41:52.159Z,101545.56
2023-01-02T23:44:24.095Z,101544.72
2023-01-02T23:46:55.666Z,101544.72
2023-01-02T23:49:27.503Z,101552.50
2023-01-02T23:51:59.056Z,101554.97
2023-01-02T23:54:30.862Z,101555.81
2023-01-02T23:57:02.378Z,101557.53
2023-01-02T23:59:33.920Z,101547.91
